Terminal Aerodrome Forecast
Issued by NWS

Home | Current Version | Previous Version | Text Only | Print | Product List | Glossary On
Versions: 1 2 3 4 5 6 7 8 9 10 11 12 13 14
000
FTUS44 KLIX 270520
TAFMSY
TAF
KMSY 270520Z 2706/2806 27006KT P6SM FEW060 BKN250
      TEMPO 2710/2713 VRB04KT BKN009
     FM271500 26007KT P6SM SCT040=

USA.gov is the U.S. government's official web portal to all federal, state and local government web resources and services.